sensor_id;sensor_type;location;lat;lon;timestamp;P1;durP1;ratioP1;P2;durP2;ratioP2
15116;SDS011;7659;51.038;13.786;2023-04-06T20:39:31;13.45;;;8.88;;
15116;SDS011;7659;51.038;13.786;2023-04-06T20:41:56;13.63;;;9.07;;
15116;SDS011;7659;51.038;13.786;2023-04-06T20:44:22;13.23;;;9.05;;
15116;SDS011;7659;51.038;13.786;2023-04-06T20:46:50;12.55;;;9.00;;
15116;SDS011;7659;51.038;13.786;2023-04-06T20:49:15;12.95;;;8.95;;
15116;SDS011;7659;51.038;13.786;2023-04-06T20:51:42;15.85;;;9.20;;
15116;SDS011;7659;51.038;13.786;2023-04-06T20:54:09;14.00;;;8.98;;
15116;SDS011;7659;51.038;13.786;2023-04-06T20:56:35;13.85;;;8.85;;
15116;SDS011;7659;51.038;13.786;2023-04-06T20:59:00;12.57;;;8.10;;
15116;SDS011;7659;51.038;13.786;2023-04-06T21:01:29;15.15;;;9.18;;
15116;SDS011;7659;51.038;13.786;2023-04-06T21:03:54;12.02;;;9.30;;
15116;SDS011;7659;51.038;13.786;2023-04-06T21:06:20;16.55;;;9.68;;
15116;SDS011;7659;51.038;13.786;2023-04-06T21:08:46;17.67;;;9.85;;
15116;SDS011;7659;51.038;13.786;2023-04-06T21:11:11;16.10;;;9.57;;
15116;SDS011;7659;51.038;13.786;2023-04-06T21:13:37;13.43;;;9.43;;
15116;SDS011;7659;51.038;13.786;2023-04-06T21:16:02;15.07;;;9.80;;
15116;SDS011;7659;51.038;13.786;2023-04-06T21:18:28;16.35;;;10.35;;
15116;SDS011;7659;51.038;13.786;2023-04-06T21:20:54;18.20;;;11.30;;
15116;SDS011;7659;51.038;13.786;2023-04-06T21:23:20;18.23;;;12.48;;
15116;SDS011;7659;51.038;13.786;2023-04-06T21:25:47;18.20;;;11.57;;
15116;SDS011;7659;51.038;13.786;2023-04-06T21:28:14;15.80;;;10.98;;
15116;SDS011;7659;51.038;13.786;2023-04-06T21:30:40;16.08;;;11.25;;
15116;SDS011;7659;51.038;13.786;2023-04-06T21:33:05;18.00;;;11.93;;
15116;SDS011;7659;51.038;13.786;2023-04-06T21:35:32;16.85;;;10.98;;
15116;SDS011;7659;51.038;13.786;2023-04-06T21:37:57;18.90;;;11.35;;
15116;SDS011;7659;51.038;13.786;2023-04-06T21:40:23;18.00;;;11.60;;
15116;SDS011;7659;51.038;13.786;2023-04-06T21:42:48;15.73;;;10.73;;
15116;SDS011;7659;51.038;13.786;2023-04-06T21:45:14;18.25;;;11.10;;
15116;SDS011;7659;51.038;13.786;2023-04-06T21:47:39;16.00;;;10.93;;
15116;SDS011;7659;51.038;13.786;2023-04-06T21:50:05;18.27;;;11.48;;
15116;SDS011;7659;51.038;13.786;2023-04-06T21:52:30;19.17;;;11.77;;
15116;SDS011;7659;51.038;13.786;2023-04-06T21:54:56;16.00;;;11.45;;
15116;SDS011;7659;51.038;13.786;2023-04-06T21:57:21;18.30;;;12.43;;
15116;SDS011;7659;51.038;13.786;2023-04-06T21:59:47;18.65;;;12.52;;
15116;SDS011;7659;51.038;13.786;2023-04-06T22:02:12;16.80;;;11.65;;
15116;SDS011;7659;51.038;13.786;2023-04-06T22:04:38;19.20;;;12.05;;
15116;SDS011;7659;51.038;13.786;2023-04-06T22:07:03;21.85;;;12.13;;
15116;SDS011;7659;51.038;13.786;2023-04-06T22:09:31;20.75;;;12.75;;
15116;SDS011;7659;51.038;13.786;2023-04-06T22:11:56;20.10;;;12.50;;
15116;SDS011;7659;51.038;13.786;2023-04-06T22:14:22;19.10;;;13.48;;
15116;SDS011;7659;51.038;13.786;2023-04-06T22:16:47;22.73;;;13.00;;
15116;SDS011;7659;51.038;13.786;2023-04-06T22:19:13;18.48;;;12.95;;
15116;SDS011;7659;51.038;13.786;2023-04-06T22:21:38;19.73;;;13.23;;
15116;SDS011;7659;51.038;13.786;2023-04-06T22:24:04;19.23;;;12.32;;
15116;SDS011;7659;51.038;13.786;2023-04-06T22:26:30;25.50;;;13.65;;
15116;SDS011;7659;51.038;13.786;2023-04-06T22:28:55;21.80;;;13.50;;
15116;SDS011;7659;51.038;13.786;2023-04-06T22:31:21;22.73;;;14.57;;
15116;SDS011;7659;51.038;13.786;2023-04-06T22:33:46;21.30;;;14.18;;
15116;SDS011;7659;51.038;13.786;2023-04-06T22:36:12;20.90;;;13.02;;
15116;SDS011;7659;51.038;13.786;2023-04-06T22:38:37;20.27;;;12.82;;
15116;SDS011;7659;51.038;13.786;2023-04-06T22:41:03;20.00;;;12.38;;
15116;SDS011;7659;51.038;13.786;2023-04-06T22:43:28;22.83;;;13.10;;
15116;SDS011;7659;51.038;13.786;2023-04-06T22:45:53;22.38;;;12.88;;
15116;SDS011;7659;51.038;13.786;2023-04-06T22:48:19;23.48;;;13.20;;
15116;SDS011;7659;51.038;13.786;2023-04-06T22:50:44;24.48;;;13.43;;
15116;SDS011;7659;51.038;13.786;2023-04-06T22:53:10;23.85;;;13.80;;
15116;SDS011;7659;51.038;13.786;2023-04-06T22:55:38;27.90;;;16.48;;
15116;SDS011;7659;51.038;13.786;2023-04-06T22:58:03;37.47;;;14.32;;
15116;SDS011;7659;51.038;13.786;2023-04-06T23:00:28;21.10;;;13.65;;
15116;SDS011;7659;51.038;13.786;2023-04-06T23:02:54;22.00;;;13.50;;
15116;SDS011;7659;51.038;13.786;2023-04-06T23:05:20;24.30;;;13.57;;
15116;SDS011;7659;51.038;13.786;2023-04-06T23:07:46;25.80;;;13.20;;
15116;SDS011;7659;51.038;13.786;2023-04-06T23:10:11;23.08;;;13.30;;
15116;SDS011;7659;51.038;13.786;2023-04-06T23:12:37;23.27;;;13.30;;
15116;SDS011;7659;51.038;13.786;2023-04-06T23:15:02;24.13;;;13.43;;
15116;SDS011;7659;51.038;13.786;2023-04-06T23:17:28;22.85;;;13.40;;
15116;SDS011;7659;51.038;13.786;2023-04-06T23:19:53;21.20;;;12.88;;
15116;SDS011;7659;51.038;13.786;2023-04-06T23:22:18;18.15;;;12.23;;
15116;SDS011;7659;51.038;13.786;2023-04-06T23:24:44;21.38;;;12.93;;
15116;SDS011;7659;51.038;13.786;2023-04-06T23:27:10;22.88;;;13.23;;
15116;SDS011;7659;51.038;13.786;2023-04-06T23:29:35;21.52;;;12.55;;
15116;SDS011;7659;51.038;13.786;2023-04-06T23:32:01;21.27;;;12.38;;
15116;SDS011;7659;51.038;13.786;2023-04-06T23:34:26;18.63;;;11.95;;
15116;SDS011;7659;51.038;13.786;2023-04-06T23:36:52;20.17;;;11.98;;
15116;SDS011;7659;51.038;13.786;2023-04-06T23:39:19;23.35;;;11.70;;
15116;SDS011;7659;51.038;13.786;2023-04-06T23:41:44;17.85;;;12.48;;
15116;SDS011;7659;51.038;13.786;2023-04-06T23:44:10;18.95;;;11.90;;
15116;SDS011;7659;51.038;13.786;2023-04-06T23:46:35;18.48;;;10.98;;
15116;SDS011;7659;51.038;13.786;2023-04-06T23:49:01;19.08;;;10.55;;
15116;SDS011;7659;51.038;13.786;2023-04-06T23:51:26;15.13;;;9.63;;
15116;SDS011;7659;51.038;13.786;2023-04-06T23:53:51;15.77;;;9.63;;
15116;SDS011;7659;51.038;13.786;2023-04-06T23:56:17;17.00;;;9.43;;
15116;SDS011;7659;51.038;13.786;2023-04-06T23:58:42;14.73;;;9.85;;
